Time;durP1;ratioP1;P1;durP2;ratioP2;P2;SDS_P1;SDS_P2;PMS_P1;PMS_P2;Temp;Humidity;BMP_temperature;BMP_pressure;BME280_temperature;BME280_humidity;BME280_pressure;Samples;Min_cycle;Max_cycle;Signal;HPM_P1;HPM_P2
2022/12/08 00:01:19;;;;;;;1.98;1.45;;;;;;;0.66;100.00;98098.78;4220468;33;20065;-72
2022/12/08 00:03:47;;;;;;;1.95;1.48;;;;;;;0.71;100.00;98088.34;4221148;33;20405;-72
2022/12/08 00:09:22;;;;;;;2.08;1.40;;;;;;;0.30;100.00;98063.03;4222960;33;20056;-71
2022/12/08 00:12:07;;;;;;;2.62;1.37;;;;;;;0.28;100.00;98054.44;4221831;33;20845;-72
2022/12/08 00:14:36;;;;;;;2.28;1.73;;;;;;;0.80;100.00;98088.94;4220701;33;20054;-71
2022/12/08 00:17:06;;;;;;;2.55;1.65;;;;;;;0.60;100.00;98083.72;4217846;33;20109;-72
2022/12/08 00:19:32;;;;;;;2.35;1.20;;;;;;;0.45;100.00;98097.19;4220197;33;20064;-72
2022/12/08 00:21:59;;;;;;;6.18;1.30;;;;;;;0.21;100.00;98074.84;4229282;33;20071;-72
2022/12/08 00:24:33;;;;;;;3.62;1.70;;;;;;;0.16;100.00;98072.81;4237968;33;20088;-72
2022/12/08 00:27:03;;;;;;;1.75;1.65;;;;;;;0.90;100.00;98104.41;4248788;33;20026;-72
2022/12/08 00:29:29;;;;;;;5.95;1.95;;;;;;;0.65;100.00;98106.94;4264928;33;20064;-72
2022/12/08 00:31:56;;;;;;;0.85;0.85;;;;;;;0.42;100.00;98062.38;4265677;33;20139;-72
2022/12/08 00:34:22;;;;;;;2.53;1.25;;;;;;;-0.01;100.00;98098.88;4265492;33;20025;-72
2022/12/08 00:36:49;;;;;;;6.80;1.83;;;;;;;0.13;100.00;98104.19;4264365;33;20078;-73
2022/12/08 00:39:16;;;;;;;3.60;2.03;;;;;;;0.41;100.00;98095.16;4264958;33;20144;-72
2022/12/08 00:44:28;;;;;;;2.72;1.70;;;;;;;0.20;100.00;98106.81;4261367;33;20062;-73
2022/12/08 00:46:55;;;;;;;4.78;2.12;;;;;;;0.18;100.00;98069.97;4257383;33;20041;-72
2022/12/08 00:49:22;;;;;;;6.60;2.30;;;;;;;0.21;100.00;98122.50;4265842;33;20050;-73
2022/12/08 00:51:49;;;;;;;1.35;1.25;;;;;;;0.52;100.00;98118.37;4265831;33;20037;-72
2022/12/08 00:54:16;;;;;;;1.92;1.52;;;;;;;0.12;100.00;98113.13;4254511;33;20054;-73
2022/12/08 00:56:49;;;;;;;4.43;1.87;;;;;;;0.24;100.00;98121.25;4252009;33;20046;-72
2022/12/08 00:59:15;;;;;;;5.00;2.47;;;;;;;0.17;100.00;98090.31;4267951;33;20049;-71
2022/12/08 03:02:59;;;;;;;8.95;4.15;;;;;;;0.16;100.00;98157.53;4259520;33;19955;-72
2022/12/08 03:05:28;;;;;;;5.85;3.40;;;;;;;0.25;100.00;98171.37;4237979;33;20031;-72
2022/12/08 03:08:11;;;;;;;12.70;4.85;;;;;;;-0.34;100.00;98140.38;4225945;33;20050;-72
2022/12/08 03:10:45;;;;;;;11.18;4.47;;;;;;;0.08;100.00;98164.84;4221296;34;20090;-72
2022/12/08 03:13:16;;;;;;;8.93;5.30;;;;;;;-0.09;100.00;98133.50;4221080;34;20055;-72
2022/12/08 03:15:45;;;;;;;12.70;5.45;;;;;;;-0.28;100.00;98177.44;4208644;34;20043;-73
2022/12/08 03:18:14;;;;;;;8.73;4.43;;;;;;;0.07;100.00;98173.81;4207597;34;20027;-73
2022/12/08 03:20:44;;;;;;;5.25;3.53;;;;;;;-0.25;100.00;98152.41;4208414;34;20066;-72
2022/12/08 03:23:13;;;;;;;9.00;4.57;;;;;;;-0.28;100.00;98179.28;4208343;34;20063;-72
2022/12/08 03:25:47;;;;;;;20.23;5.22;;;;;;;-0.05;100.00;98171.78;4208765;34;20055;-72
2022/12/08 03:28:14;;;;;;;10.00;6.20;;;;;;;-0.02;100.00;98134.31;4212829;34;20048;-73
2022/12/08 03:30:44;;;;;;;8.48;4.55;;;;;;;0.07;100.00;98176.47;4220893;33;20740;-73
2022/12/08 03:33:19;;;;;;;7.32;4.70;;;;;;;-0.14;100.00;98172.97;4236695;33;20058;-72
2022/12/08 03:35:47;;;;;;;6.97;3.62;;;;;;;0.31;100.00;98170.56;4221526;33;20470;-72
2022/12/08 03:38:15;;;;;;;1.90;1.65;;;;;;;-0.07;100.00;98163.22;4216052;34;20044;-72
2022/12/08 03:40:43;;;;;;;12.98;6.25;;;;;;;-0.32;100.00;98133.06;4212696;34;20054;-72
2022/12/08 03:43:09;;;;;;;6.60;4.10;;;;;;;-0.25;100.00;98133.91;4225308;34;20039;-72
2022/12/08 03:45:35;;;;;;;8.95;4.22;;;;;;;-0.20;100.00;98136.75;4225104;33;20028;-71
2022/12/08 03:48:02;;;;;;;12.73;4.97;;;;;;;0.13;100.00;98151.84;4236009;33;20042;-72
2022/12/08 03:50:28;;;;;;;15.82;5.07;;;;;;;0.15;100.00;98150.59;4238304;33;20064;-72
2022/12/08 03:52:55;;;;;;;10.18;4.10;;;;;;;-0.06;100.00;98153.47;4237383;33;20058;-72
2022/12/08 03:55:21;;;;;;;18.10;4.82;;;;;;;-0.53;100.00;98148.06;4235867;33;20060;-72
2022/12/08 03:57:48;;;;;;;9.43;4.53;;;;;;;-0.34;100.00;98153.62;4225315;34;20351;-71
2022/12/08 04:00:15;;;;;;;9.43;5.10;;;;;;;-0.18;100.00;98171.75;4231598;33;20062;-72
2022/12/08 04:02:42;;;;;;;11.43;4.93;;;;;;;-0.01;100.00;98178.28;4237538;33;20058;-71
2022/12/08 04:05:08;;;;;;;9.05;3.28;;;;;;;-0.17;100.00;98149.56;4238823;33;20031;-71
2022/12/08 04:07:35;;;;;;;15.07;4.82;;;;;;;-0.51;100.00;98164.56;4250418;33;20046;-72
2022/12/08 04:10:03;;;;;;;10.02;5.25;;;;;;;-0.32;100.00;98180.66;4238516;33;20030;-72
2022/12/08 04:12:30;;;;;;;17.25;6.00;;;;;;;0.01;100.00;98175.44;4238446;33;20034;-72
2022/12/08 04:14:56;;;;;;;11.38;5.25;;;;;;;-0.28;100.00;98150.16;4238809;33;20034;-72
2022/12/08 04:17:23;;;;;;;12.73;4.90;;;;;;;0.08;100.00;98180.72;4232666;33;20393;-72
2022/12/08 04:19:49;;;;;;;8.18;3.85;;;;;;;-0.17;100.00;98181.31;4248396;33;20181;-72
2022/12/08 04:22:15;;;;;;;7.87;3.65;;;;;;;-0.22;100.00;98179.28;4238147;33;20035;-71
2022/12/08 04:24:42;;;;;;;18.65;6.75;;;;;;;-0.37;100.00;98168.03;4249099;33;20100;-71
2022/12/08 04:27:08;;;;;;;14.63;5.75;;;;;;;-0.33;100.00;98155.25;4231787;33;20384;-72
2022/12/08 04:29:34;;;;;;;5.82;2.28;;;;;;;-0.25;100.00;98173.56;4224565;34;20027;-71
2022/12/08 04:32:01;;;;;;;20.27;4.95;;;;;;;-0.43;100.00;98159.09;4224853;34;20076;-72
2022/12/08 04:34:27;;;;;;;12.15;6.20;;;;;;;-0.47;100.00;98171.06;4207885;34;20070;-71
2022/12/08 04:36:54;;;;;;;5.50;3.42;;;;;;;-0.33;100.00;98179.06;4204105;34;20036;-71
2022/12/08 04:39:20;;;;;;;10.85;5.57;;;;;;;-0.46;100.00;98185.94;4210917;34;20398;-71
2022/12/08 04:41:47;;;;;;;10.85;5.05;;;;;;;-0.22;100.00;98159.94;4207479;34;20039;-72
2022/12/08 04:44:13;;;;;;;8.27;4.05;;;;;;;-0.52;100.00;98154.19;4196783;34;20378;-72
2022/12/08 04:46:40;;;;;;;6.68;4.25;;;;;;;-0.36;100.00;98196.13;4207430;34;20448;-72
2022/12/08 04:49:06;;;;;;;5.93;3.67;;;;;;;-0.37;100.00;98163.59;4205330;34;20039;-71
2022/12/08 04:51:32;;;;;;;13.73;5.62;;;;;;;-0.33;100.00;98192.28;4209761;34;20429;-72
2022/12/08 04:53:59;;;;;;;16.50;5.25;;;;;;;-0.08;100.00;98177.47;4210781;34;20063;-71
2022/12/08 04:56:25;;;;;;;7.87;4.28;;;;;;;-0.28;100.00;98176.62;4183101;34;20078;-72
2022/12/08 04:58:51;;;;;;;8.13;4.22;;;;;;;-0.57;100.00;98146.84;4182998;34;20189;-72
2022/12/08 05:01:18;;;;;;;9.07;4.70;;;;;;;-0.32;100.00;98183.31;4184135;34;20105;-71
2022/12/08 05:03:44;;;;;;;16.83;6.47;;;;;;;-0.29;100.00;98188.22;4196319;34;20047;-71
2022/12/08 05:06:12;;;;;;;7.45;4.12;;;;;;;-0.29;100.00;98172.34;4182536;34;20051;-72
2022/12/08 05:08:39;;;;;;;10.68;5.87;;;;;;;-0.06;100.00;98196.59;4184464;34;20036;-72
2022/12/08 05:11:08;;;;;;;10.15;4.87;;;;;;;0.17;100.00;98195.41;4186855;34;20443;-73
2022/12/08 05:13:34;;;;;;;14.27;5.90;;;;;;;0.18;100.00;98187.25;4182718;34;20062;-73
2022/12/08 05:16:06;;;;;;;14.75;5.82;;;;;;;0.07;100.00;98182.56;4182743;34;20367;-72
2022/12/08 05:18:32;;;;;;;10.68;4.87;;;;;;;0.10;100.00;98152.25;4182720;34;20348;-73
2022/12/08 05:20:59;;;;;;;11.90;4.78;;;;;;;0.01;100.00;98148.16;4203615;34;20394;-72
2022/12/08 05:23:26;;;;;;;14.38;5.93;;;;;;;-0.12;100.00;98152.41;4210262;34;20069;-72
2022/12/08 05:25:53;;;;;;;10.18;5.68;;;;;;;-0.05;100.00;98153.25;4210123;34;20460;-72
2022/12/08 05:28:19;;;;;;;15.75;5.93;;;;;;;-0.02;100.00;98187.25;4219082;34;20098;-72
2022/12/08 05:30:46;;;;;;;14.87;5.65;;;;;;;0.03;100.00;98152.22;4223666;34;20043;-72
2022/12/08 05:33:12;;;;;;;12.23;3.78;;;;;;;0.09;100.00;98151.41;4221302;34;20046;-72
2022/12/08 05:35:39;;;;;;;10.60;5.47;;;;;;;-0.37;100.00;98157.47;4223813;34;20107;-72
2022/12/08 05:38:06;;;;;;;12.43;6.43;;;;;;;0.15;100.00;98160.38;4223751;34;20072;-71
2022/12/08 05:40:32;;;;;;;11.38;5.32;;;;;;;0.04;100.00;98153.06;4223519;34;20178;-72
2022/12/08 05:42:58;;;;;;;10.25;5.12;;;;;;;0.00;100.00;98152.66;4222641;34;20057;-72
2022/12/08 05:45:25;;;;;;;14.15;6.07;;;;;;;0.19;100.00;98185.41;4220779;34;20081;-72
2022/12/08 05:47:52;;;;;;;10.05;5.82;;;;;;;0.15;100.00;98192.97;4223787;34;20106;-72
2022/12/08 05:50:19;;;;;;;12.18;5.60;;;;;;;-0.02;100.00;98192.56;4223973;34;20090;-72
2022/12/08 05:52:45;;;;;;;17.23;6.43;;;;;;;0.02;100.00;98194.75;4222341;34;20042;-72
2022/12/08 05:55:11;;;;;;;13.00;5.18;;;;;;;0.12;100.00;98193.34;4223617;34;20046;-72
2022/12/08 05:57:38;;;;;;;17.23;6.22;;;;;;;-0.09;100.00;98186.41;4221345;34;20081;-72
2022/12/08 06:00:05;;;;;;;16.15;6.43;;;;;;;-0.04;100.00;98189.28;4233514;33;20362;-72
2022/12/08 06:02:37;;;;;;;23.45;6.68;;;;;;;-0.04;100.00;98194.56;4207264;34;20496;-72
2022/12/08 06:05:05;;;;;;;13.55;6.20;;;;;;;-0.27;100.00;98159.72;4208128;34;20070;-72
2022/12/08 06:07:31;;;;;;;14.32;6.85;;;;;;;0.26;100.00;98215.38;4215267;34;20023;-71
2022/12/08 06:09:57;;;;;;;10.02;5.90;;;;;;;-0.03;100.00;98179.53;4209552;34;20052;-71
2022/12/08 06:12:24;;;;;;;13.65;7.32;;;;;;;0.44;100.00;98206.00;4211297;34;20051;-73
2022/12/08 06:14:50;;;;;;;13.25;7.03;;;;;;;0.48;100.00;98215.16;4208993;34;20482;-72
2022/12/08 06:17:16;;;;;;;17.08;7.10;;;;;;;0.28;100.00;98201.94;4208865;34;20047;-72
2022/12/08 06:19:43;;;;;;;16.02;6.65;;;;;;;0.38;100.00;98172.37;4219528;34;20038;-72
2022/12/08 06:22:09;;;;;;;20.80;7.00;;;;;;;0.32;100.00;98172.19;4250433;33;20490;-72
2022/12/08 06:24:36;;;;;;;12.15;5.90;;;;;;;0.47;100.00;98206.41;4233738;33;20494;-73
2022/12/08 06:27:02;;;;;;;13.88;5.85;;;;;;;0.23;100.00;98213.12;4235897;33;20487;-72
2022/12/08 06:29:29;;;;;;;14.75;6.62;;;;;;;0.43;100.00;98223.75;4221607;34;20062;-72
2022/12/08 06:31:55;;;;;;;16.05;5.95;;;;;;;0.11;100.00;98180.31;4218510;34;20043;-73
2022/12/08 06:34:22;;;;;;;19.65;7.85;;;;;;;0.16;100.00;98207.84;4222021;34;20436;-72
2022/12/08 06:36:48;;;;;;;15.90;7.20;;;;;;;0.19;100.00;98209.25;4223419;34;20074;-72
2022/12/08 06:39:14;;;;;;;16.55;7.60;;;;;;;0.15;100.00;98223.91;4193801;34;20059;-72
2022/12/08 06:44:26;;;;;;;16.58;8.40;;;;;;;0.51;100.00;98212.09;4181893;34;20051;-73
2022/12/08 06:46:52;;;;;;;19.33;9.00;;;;;;;0.40;100.00;98196.81;4200081;34;20085;-72
2022/12/08 06:49:19;;;;;;;17.52;8.70;;;;;;;0.51;100.00;98222.69;4204992;34;20064;-73
2022/12/08 06:51:45;;;;;;;18.58;8.43;;;;;;;0.67;100.00;98227.59;4196531;34;20162;-73
2022/12/08 06:54:12;;;;;;;26.23;9.80;;;;;;;0.44;100.00;98196.22;4183417;34;20187;-73
2022/12/08 06:56:38;;;;;;;26.15;9.57;;;;;;;0.72;100.00;98230.44;4190652;34;20083;-72
2022/12/08 06:59:04;;;;;;;23.50;10.02;;;;;;;0.75;100.00;98233.69;4192786;34;20071;-72
2022/12/08 07:01:31;;;;;;;20.83;9.43;;;;;;;0.42;100.00;98206.19;4214537;34;20092;-72
2022/12/08 07:03:58;;;;;;;21.37;9.43;;;;;;;0.62;100.00;98245.91;4219750;34;20094;-72
2022/12/08 07:06:24;;;;;;;32.85;10.50;;;;;;;0.41;100.00;98196.63;4220873;34;20054;-72
2022/12/08 07:08:51;;;;;;;18.85;9.43;;;;;;;0.59;100.00;98230.47;4217630;33;20051;-73
2022/12/08 07:11:21;;;;;;;22.42;10.98;;;;;;;0.59;100.00;98211.06;4258672;33;20050;-72
2022/12/08 07:13:51;;;;;;;29.00;9.40;;;;;;;0.66;100.00;98225.16;4263366;33;20080;-72
2022/12/08 07:16:19;;;;;;;21.12;10.30;;;;;;;0.47;100.00;98193.16;4267963;33;20071;-72
2022/12/08 07:18:51;;;;;;;23.55;9.70;;;;;;;0.60;100.00;98226.78;4269167;33;20050;-72
2022/12/08 07:21:25;;;;;;;19.55;9.73;;;;;;;0.82;100.00;98229.22;4239551;33;20561;-72
2022/12/08 07:23:56;;;;;;;22.52;10.55;;;;;;;0.77;100.00;98231.66;4220449;33;20047;-72
2022/12/08 07:26:40;;;;;;;23.50;10.88;;;;;;;0.81;100.00;98232.87;4224387;33;20043;-72
2022/12/08 07:29:12;;;;;;;24.10;11.25;;;;;;;0.98;100.00;98234.06;4222090;33;20056;-72
2022/12/08 07:31:42;;;;;;;25.48;10.93;;;;;;;0.88;100.00;98233.69;4221713;34;20058;-73
2022/12/08 07:34:11;;;;;;;26.62;12.00;;;;;;;0.49;100.00;98236.12;4225100;33;20462;-73
2022/12/08 07:36:39;;;;;;;26.92;12.52;;;;;;;0.63;100.00;98205.16;4224090;34;20144;-73
2022/12/08 07:39:11;;;;;;;21.30;8.30;;;;;;;0.68;100.00;98228.41;4220625;34;20420;-72
2022/12/08 07:41:38;;;;;;;26.70;11.70;;;;;;;0.80;100.00;98232.06;4209758;34;20079;-73
2022/12/08 07:44:08;;;;;;;32.38;11.55;;;;;;;0.53;100.00;98205.59;4218232;34;20043;-72
2022/12/08 07:46:55;;;;;;;27.58;11.38;;;;;;;0.91;100.00;98230.63;4199253;34;20043;-71
2022/12/08 07:49:29;;;;;;;21.17;10.50;;;;;;;1.19;100.00;98245.44;4209479;34;20093;-72
2022/12/08 07:51:58;;;;;;;30.95;13.05;;;;;;;0.96;100.00;98208.78;4208029;34;20075;-71
2022/12/08 07:54:26;;;;;;;30.65;12.45;;;;;;;1.23;100.00;98236.06;4209932;34;20057;-74
2022/12/08 07:57:02;;;;;;;29.25;12.00;;;;;;;1.21;100.00;98238.09;4211008;34;20061;-73
2022/12/08 07:59:32;;;;;;;23.35;11.25;;;;;;;1.41;100.00;98238.84;4207473;34;20059;-73
2022/12/08 08:01:59;;;;;;;23.23;10.52;;;;;;;1.35;100.00;98229.06;4203352;34;20047;-74
2022/12/08 08:04:26;;;;;;;18.37;8.73;;;;;;;1.45;100.00;98229.44;4207425;34;20085;-74
2022/12/08 08:06:53;;;;;;;28.90;11.77;;;;;;;0.97;100.00;98197.16;4205879;34;20043;-74
2022/12/08 08:09:27;;;;;;;33.10;14.52;;;;;;;1.45;100.00;98234.75;4197715;34;20055;-73
2022/12/08 08:12:05;;;;;;;22.02;10.95;;;;;;;1.38;100.00;98241.91;4193222;34;20194;-73
2022/12/08 08:14:38;;;;;;;25.37;10.45;;;;;;;1.39;100.00;98237.44;4183615;34;20109;-73
2022/12/08 08:17:05;;;;;;;20.75;10.57;;;;;;;1.35;100.00;98236.22;4181994;34;20095;-73
2022/12/08 08:19:37;;;;;;;28.50;11.10;;;;;;;1.07;100.00;98222.22;4183538;34;20056;-73
2022/12/08 08:22:13;;;;;;;21.37;11.40;;;;;;;1.44;100.00;98234.97;4187369;34;20033;-74
2022/12/08 08:24:50;;;;;;;22.62;9.55;;;;;;;1.30;100.00;98250.09;4194571;34;20055;-74
2022/12/08 08:27:19;;;;;;;17.05;8.07;;;;;;;0.92;100.00;98218.19;4199144;34;20454;-74
2022/12/08 08:29:49;;;;;;;39.03;9.73;;;;;;;1.21;100.00;98216.87;4195441;34;20073;-74
2022/12/08 08:32:17;;;;;;;25.17;11.63;;;;;;;1.21;100.00;98254.00;4197743;34;20054;-74
2022/12/08 08:34:44;;;;;;;22.02;11.23;;;;;;;1.23;100.00;98212.19;4179187;34;20044;-74
2022/12/08 08:37:12;;;;;;;17.85;9.63;;;;;;;1.38;100.00;98249.88;4181456;34;20176;-74
2022/12/08 08:39:42;;;;;;;23.40;10.90;;;;;;;1.41;100.00;98249.44;4184296;34;20059;-74
2022/12/08 08:42:09;;;;;;;26.12;11.02;;;;;;;1.28;100.00;98217.66;4182214;34;20078;-76
2022/12/08 08:44:37;;;;;;;24.02;10.60;;;;;;;1.70;100.00;98257.91;4183702;34;20073;-74
2022/12/08 08:47:05;;;;;;;30.52;12.32;;;;;;;1.64;100.00;98253.44;4182671;34;20057;-74
2022/12/08 08:49:32;;;;;;;9.93;6.07;;;;;;;1.43;100.00;98247.37;4191728;34;20113;-73
2022/12/08 08:52:04;;;;;;;24.08;11.68;;;;;;;1.12;100.00;98210.16;4213601;34;20067;-73
2022/12/08 08:54:36;;;;;;;21.73;11.75;;;;;;;1.91;100.00;98248.00;4209457;34;20065;-73
2022/12/08 08:57:08;;;;;;;25.98;10.43;;;;;;;1.74;100.00;98237.88;4207866;34;20431;-74
2022/12/08 08:59:35;;;;;;;21.55;11.40;;;;;;;1.65;100.00;98249.75;4212180;34;20419;-73
2022/12/08 09:02:02;;;;;;;22.70;11.35;;;;;;;1.71;100.00;98243.62;4210639;34;20069;-73
2022/12/08 09:04:33;;;;;;;29.77;12.85;;;;;;;1.39;100.00;98208.25;4209656;34;20492;-73
2022/12/08 09:07:06;;;;;;;21.50;11.80;;;;;;;1.90;100.00;98247.19;4215130;34;20054;-73
2022/12/08 09:09:33;;;;;;;28.10;12.45;;;;;;;1.71;100.00;98217.06;4238193;33;20050;-73
2022/12/08 09:11:59;;;;;;;26.10;10.93;;;;;;;2.07;100.00;98242.19;4236537;33;20098;-73
2022/12/08 09:14:26;;;;;;;23.92;11.10;;;;;;;1.79;100.00;98230.09;4237689;33;20052;-73
2022/12/08 09:16:52;;;;;;;27.60;12.95;;;;;;;1.92;100.00;98231.06;4236744;33;20056;-74
2022/12/08 09:21:55;;;;;;;19.08;10.82;;;;;;;1.81;100.00;98233.34;4410386;28;20185;-73
2022/12/08 09:24:37;;;;;;;26.83;12.50;;;;;;;2.00;100.00;98193.63;4264845;33;20058;-72
2022/12/08 09:27:09;;;;;;;16.73;8.63;;;;;;;1.84;100.00;98233.97;4260626;33;20039;-72
2022/12/08 09:29:38;;;;;;;26.35;12.05;;;;;;;1.83;100.00;98224.38;4254150;33;20057;-74
2022/12/08 09:32:18;;;;;;;22.62;11.57;;;;;;;2.16;100.00;98224.97;4255294;33;20042;-74
2022/12/08 09:34:46;;;;;;;25.30;12.30;;;;;;;1.78;100.00;98196.59;4255402;33;20062;-73
2022/12/08 09:37:14;;;;;;;25.83;12.35;;;;;;;2.35;100.00;98187.84;4257544;33;20068;-74
2022/12/08 09:39:41;;;;;;;34.10;10.75;;;;;;;2.39;100.00;98212.94;4257699;33;20058;-73
2022/12/08 09:42:09;;;;;;;36.75;13.57;;;;;;;2.08;100.00;98211.16;4261098;33;20030;-73
2022/12/08 09:45:06;;;;;;;26.23;11.82;;;;;;;2.21;100.00;98204.94;4268178;33;20026;-73
2022/12/08 09:47:57;;;;;;;23.60;10.43;;;;;;;2.29;100.00;98212.63;4249076;33;20216;-74
2022/12/08 09:50:37;;;;;;;23.85;10.90;;;;;;;2.20;100.00;98197.97;4270636;33;20076;-74
2022/12/08 09:53:16;;;;;;;18.35;8.30;;;;;;;2.59;100.00;98206.66;4294989;33;20059;-73
2022/12/08 09:56:23;;;;;;;24.92;10.73;;;;;;;2.37;100.00;98209.69;4265110;33;20068;-74
2022/12/08 09:59:04;;;;;;;22.23;11.12;;;;;;;1.96;100.00;98200.38;4268035;33;20074;-74
2022/12/08 10:01:40;;;;;;;19.98;11.77;;;;;;;2.18;100.00;98196.34;4262180;33;20053;-74
2022/12/08 10:04:35;;;;;;;17.60;10.40;;;;;;;1.49;100.00;98080.44;4261062;33;20058;-73
2022/12/08 10:07:26;;;;;;;21.75;11.82;;;;;;;2.22;100.00;98201.22;4236652;33;20034;-74
2022/12/08 10:10:04;;;;;;;26.20;11.18;;;;;;;2.01;100.00;98187.31;4239117;33;20038;-73
2022/12/08 10:12:56;;;;;;;23.92;12.05;;;;;;;1.97;100.00;98188.75;4251818;33;20048;-74
2022/12/08 10:15:59;;;;;;;20.60;10.20;;;;;;;2.41;100.00;98178.19;4251300;33;20041;-74
2022/12/08 10:18:28;;;;;;;29.33;12.65;;;;;;;2.17;100.00;98186.75;4205985;33;20085;-73
2022/12/08 10:21:21;;;;;;;23.45;13.38;;;;;;;1.83;100.00;98155.34;4219236;34;20051;-72
2022/12/08 10:23:54;;;;;;;31.92;12.18;;;;;;;2.05;100.00;98156.59;4200362;34;20047;-73
2022/12/08 10:26:21;;;;;;;24.17;12.25;;;;;;;2.07;100.00;98169.66;4203581;34;20047;-73
2022/12/08 10:28:48;;;;;;;20.73;11.38;;;;;;;2.08;100.00;98174.78;4205020;34;20048;-73
2022/12/08 10:31:22;;;;;;;23.00;9.85;;;;;;;1.87;100.00;98145.91;4203065;34;20028;-73
2022/12/08 10:34:00;;;;;;;21.27;10.88;;;;;;;2.10;100.00;98143.50;4200256;34;20043;-73
2022/12/08 10:36:53;;;;;;;25.48;11.85;;;;;;;2.30;100.00;98161.12;4207530;34;20068;-71
2022/12/08 10:39:33;;;;;;;27.07;13.07;;;;;;;2.10;100.00;98164.75;4180520;34;20509;-72
2022/12/08 10:42:20;;;;;;;30.67;14.52;;;;;;;2.57;100.00;98167.03;4200494;34;20524;-72
2022/12/08 10:45:22;;;;;;;25.70;12.18;;;;;;;2.31;100.00;98130.84;4207280;34;20070;-72
2022/12/08 10:48:12;;;;;;;20.62;10.85;;;;;;;2.31;100.00;98160.09;4208578;34;20039;-72
2022/12/08 10:50:59;;;;;;;27.37;11.95;;;;;;;2.50;100.00;98167.06;4221347;33;20063;-72
2022/12/08 10:53:43;;;;;;;27.45;13.13;;;;;;;2.70;100.00;98155.44;4223152;33;20035;-72
2022/12/08 10:56:19;;;;;;;15.48;9.40;;;;;;;2.73;100.00;98161.12;4228323;33;20068;-72
2022/12/08 10:59:04;;;;;;;31.75;12.85;;;;;;;2.48;100.00;98158.50;4223480;34;20139;-72
2022/12/08 11:01:39;;;;;;;24.73;11.25;;;;;;;2.58;100.00;98158.00;4225408;34;20122;-72
2022/12/08 11:04:14;;;;;;;25.50;12.05;;;;;;;2.44;100.00;98157.31;4233861;33;20157;-72
2022/12/08 11:06:42;;;;;;;24.73;12.10;;;;;;;2.68;100.00;98162.81;4236200;33;20050;-71
2022/12/08 11:09:14;;;;;;;28.45;12.23;;;;;;;2.73;100.00;98149.69;4234976;33;20092;-72
2022/12/08 11:11:44;;;;;;;24.95;11.75;;;;;;;2.87;100.00;98151.19;4234904;33;20057;-72
2022/12/08 11:14:23;;;;;;;30.00;13.77;;;;;;;2.75;100.00;98150.28;4234584;33;20062;-72
2022/12/08 11:16:53;;;;;;;23.00;12.20;;;;;;;2.56;100.00;98114.09;4253364;33;20061;-72
2022/12/08 11:19:27;;;;;;;19.67;10.98;;;;;;;2.87;100.00;98139.72;4268740;33;20061;-72
2022/12/08 11:21:56;;;;;;;20.10;11.10;;;;;;;2.69;100.00;98128.03;4274843;33;20112;-72
2022/12/08 11:24:28;;;;;;;27.20;12.20;;;;;;;2.51;100.00;98136.81;4267118;33;20041;-72
2022/12/08 11:27:08;;;;;;;17.70;9.05;;;;;;;2.80;100.00;98134.47;4278316;33;20056;-72
2022/12/08 11:29:37;;;;;;;25.83;12.15;;;;;;;2.70;100.00;98136.84;4265237;33;20079;-72
2022/12/08 11:32:13;;;;;;;21.15;10.68;;;;;;;2.81;100.00;98136.09;4265136;33;20062;-72
2022/12/08 11:35:01;;;;;;;23.10;11.55;;;;;;;3.10;100.00;98128.41;4263572;33;20124;-72
2022/12/08 11:37:48;;;;;;;18.40;10.02;;;;;;;2.83;100.00;98138.53;4264639;33;20057;-72
2022/12/08 11:40:35;;;;;;;19.67;10.38;;;;;;;2.84;100.00;98098.44;4259630;33;20050;-72
2022/12/08 11:43:41;;;;;;;24.75;12.52;;;;;;;2.87;100.00;98127.25;4266876;33;20057;-71
2022/12/08 11:46:20;;;;;;;19.50;10.68;;;;;;;3.07;100.00;98129.66;4222401;34;20110;-72
2022/12/08 11:48:49;;;;;;;22.92;10.15;;;;;;;3.12;100.00;98121.00;4215877;34;20042;-72
2022/12/08 11:51:27;;;;;;;30.70;11.30;;;;;;;2.83;100.00;98128.72;4213504;34;20047;-71
2022/12/08 11:54:23;;;;;;;16.23;10.13;;;;;;;2.46;100.00;98088.81;4213349;33;20073;-72
2022/12/08 11:56:56;;;;;;;21.80;10.93;;;;;;;3.07;100.00;98096.94;4226518;33;20051;-73
2022/12/08 11:59:48;;;;;;;27.65;9.93;;;;;;;3.30;100.00;98122.03;4225474;34;20477;-73
2022/12/08 12:04:58;;;;;;;20.98;10.10;;;;;;;3.10;100.00;98120.44;4225434;34;20068;-73
2022/12/08 12:07:45;;;;;;;23.83;10.73;;;;;;;3.33;100.00;98116.25;4227455;34;20039;-73
2022/12/08 12:10:37;;;;;;;21.20;9.55;;;;;;;3.48;100.00;98111.34;4225942;34;20062;-73
2022/12/08 12:13:10;;;;;;;21.12;9.32;;;;;;;3.37;100.00;98112.13;4225805;34;20053;-74
2022/12/08 12:16:08;;;;;;;13.15;8.18;;;;;;;3.17;100.00;98086.56;4224917;34;20046;-73
2022/12/08 12:18:48;;;;;;;22.52;9.88;;;;;;;3.40;100.00;98074.41;4225084;34;20035;-74
2022/12/08 12:21:43;;;;;;;17.20;8.90;;;;;;;3.41;100.00;98102.63;4253503;33;20057;-73
2022/12/08 12:24:19;;;;;;;23.52;10.15;;;;;;;3.62;100.00;98103.97;4282005;33;20385;-73
2022/12/08 12:27:14;;;;;;;28.00;9.48;;;;;;;3.83;100.00;98105.31;4269524;33;20050;-73
2022/12/08 12:30:31;;;;;;;19.42;9.68;;;;;;;3.68;100.00;98096.94;4267894;33;20092;-73
2022/12/08 12:33:00;;;;;;;24.10;10.43;;;;;;;3.64;100.00;98097.38;4213293;33;20038;-73
2022/12/08 12:35:46;;;;;;;19.90;9.13;;;;;;;3.77;100.00;98095.56;4251026;33;20038;-73
2022/12/08 12:41:09;;;;;;;19.20;7.43;;;;;;;3.53;100.00;98063.56;4242094;33;20034;-72
2022/12/08 12:43:37;;;;;;;8.52;5.50;;;;;;;3.28;100.00;98077.81;4246159;33;20023;-73
2022/12/08 12:46:22;;;;;;;22.10;6.68;;;;;;;3.61;100.00;98087.19;4244889;33;20170;-72
2022/12/08 12:48:50;;;;;;;14.10;7.12;;;;;;;3.79;100.00;98082.81;4238370;33;20073;-73
2022/12/08 12:51:38;;;;;;;21.12;7.70;;;;;;;3.78;100.00;98044.75;4238395;33;20030;-73
2022/12/08 12:54:28;;;;;;;11.68;6.12;;;;;;;3.80;100.00;98053.31;4234717;33;20058;-72
2022/12/08 12:57:08;;;;;;;18.67;7.60;;;;;;;3.59;100.00;98078.63;4236370;33;20027;-73
2022/12/08 12:59:53;;;;;;;12.07;6.43;;;;;;;3.56;100.00;98079.06;4247721;33;20042;-73
2022/12/08 13:02:38;;;;;;;14.82;8.10;;;;;;;3.54;100.00;98075.84;4233397;33;20047;-73
2022/12/08 13:05:19;;;;;;;17.35;7.03;;;;;;;3.89;100.00;98066.28;4235575;33;20042;-74
2022/12/08 13:07:54;;;;;;;13.43;8.15;;;;;;;3.64;100.00;98070.75;4235631;33;20046;-75
2022/12/08 13:10:25;;;;;;;12.50;7.55;;;;;;;3.84;100.00;98077.63;4254787;33;20527;-75
2022/12/08 13:13:15;;;;;;;17.40;8.50;;;;;;;3.71;100.00;98069.84;4221676;33;20055;-75
2022/12/08 13:15:47;;;;;;;17.65;8.32;;;;;;;3.95;100.00;98065.37;4234228;33;20066;-74
2022/12/08 13:18:40;;;;;;;16.50;7.62;;;;;;;4.05;100.00;98062.12;4235106;33;20106;-74
2022/12/08 13:21:07;;;;;;;18.77;8.05;;;;;;;3.74;100.00;98058.75;4238632;33;20109;-74
2022/12/08 13:23:36;;;;;;;17.02;8.10;;;;;;;3.48;100.00;98059.94;4248107;33;20422;-74
2022/12/08 13:26:23;;;;;;;20.80;8.45;;;;;;;3.86;100.00;98043.59;4232163;33;20383;-74
2022/12/08 13:29:02;;;;;;;17.70;8.52;;;;;;;4.07;100.00;98073.34;4224332;33;20054;-75
2022/12/08 13:31:45;;;;;;;15.85;8.20;;;;;;;3.84;100.00;98069.62;4222516;34;20104;-73
2022/12/08 13:34:21;;;;;;;16.52;7.87;;;;;;;3.74;100.00;98074.72;4222252;33;20088;-73
2022/12/08 13:37:06;;;;;;;19.20;9.30;;;;;;;3.51;100.00;98065.66;4221181;33;20468;-74
2022/12/08 13:39:38;;;;;;;16.70;8.32;;;;;;;3.81;100.00;98072.75;4219256;33;20125;-74
2022/12/08 13:42:11;;;;;;;18.75;8.90;;;;;;;3.83;100.00;98073.34;4210176;34;20055;-74
2022/12/08 13:44:43;;;;;;;21.60;9.45;;;;;;;3.60;100.00;98040.28;4199865;34;20036;-72
2022/12/08 13:47:14;;;;;;;17.12;8.88;;;;;;;3.96;100.00;98067.81;4211710;33;20064;-74
2022/12/08 13:49:49;;;;;;;18.80;9.77;;;;;;;3.95;100.00;98052.84;4220671;33;20113;-75
2022/12/08 13:52:30;;;;;;;19.15;9.98;;;;;;;4.09;100.00;98065.97;4220916;33;20072;-75
2022/12/08 13:54:59;;;;;;;18.10;8.43;;;;;;;3.72;100.00;98071.47;4212289;33;20102;-75
2022/12/08 13:57:30;;;;;;;16.62;8.90;;;;;;;3.47;100.00;98074.31;4226166;33;20068;-75
2022/12/08 14:00:03;;;;;;;21.80;10.00;;;;;;;3.67;100.00;98079.31;4220918;33;20197;-74
2022/12/08 14:02:43;;;;;;;20.37;9.18;;;;;;;3.92;100.00;98079.94;4223317;33;20094;-74
2022/12/08 14:05:09;;;;;;;18.75;8.95;;;;;;;3.93;100.00;98062.94;4193024;34;20271;-74